Monday, December 5, 2016, 11:36 AM EST

KRDG, Reading Regional Airport

Location: Reading, PA, United States Lat: 40.367
Local Time: 11:36 AM EST (16:36 GMT) Lon: -75.967
Time Zone: US/Eastern Elev: 344 ft

Show me the last for .
Show Decoded

2016-12-05 11:17 METAR KRDG 051617Z 26007KT 10SM SCT009 07/03 A2999 RMK AO2 T00670033 =
2016-12-05 10:54 METAR KRDG 051554Z 29006KT 7SM BKN009 06/03 A3000 RMK AO2 SLP166 T00560028 =
2016-12-05 10:18 METAR KRDG 051518Z VRB03KT 3SM OVC009 05/03 A3001 RMK AO2 SFC VIS 10 CIG 007V013
                 T00500028 =
2016-12-05 10:05 METAR KRDG 051505Z 30003KT 3SM OVC010 04/03 A3001 RMK AO2 SFC VIS 10 CIG 006V013
                 T00440028 =
2016-12-05 09:54 METAR KRDG 051454Z 00000KT 9SM OVC008 04/03 A3002 RMK AO2 CIG 005V012 SLP171
                 T00440028 53010 =
2016-12-05 08:54 METAR KRDG 051354Z 00000KT 8SM OVC007 03/02 A3000 RMK AO2 SLP165 T00330017 =
2016-12-05 07:54 METAR KRDG 051254Z 00000KT 10SM OVC009 03/01 A2999 RMK AO2 SLP161 T00280011 =
2016-12-05 06:54 METAR KRDG 051154Z 00000KT 8SM OVC009 02/01 A2999 RMK AO2 RAB13E23 SLP161 P0000
                 60014 70014 I6000 T00220011 10044 20011 55003 =
2016-12-05 05:54 METAR KRDG 051054Z 15003KT 4SM BR OVC007 02/01 A2998 RMK AO2 RAE35 SLP158 P0001
                 T00220006 =
2016-12-05 05:37 METAR KRDG 051037Z 16003KT 4SM BR OVC007 02/01 A2998 RMK AO2 RAE35 P0001
                 T00170006 =
2016-12-05 04:54 METAR KRDG 050954Z 00000KT 2 1/2SM -RA BR OVC007 01/00 A2999 RMK AO2 CIG 005V010
                 SLP164 P0001 I1000 T00110000 =
2016-12-05 03:54 METAR KRDG 050854Z 15003KT 4SM -RA BR BKN006 OVC013 01/00 A2999 RMK AO2
                 RAE05B50SNB05E50 SLP163 P0006 60012 T00110000 58010 =
2016-12-05 03:46 METAR KRDG 050846Z 00000KT 4SM -SN BR BKN006 OVC014 01/M01 A2999 RMK AO2
                 RAE05SNB05 P0005 T00111006 =
2016-12-05 03:33 METAR KRDG 050833Z 00000KT 2SM -SN BR OVC006 01/00 A3000 RMK AO2 RAE05SNB05
                 P0005 T00110000 =
2016-12-05 02:54 METAR KRDG 050754Z 13004KT 6SM RA BR OVC008 02/00 A3002 RMK AO2 SLP172 P0004
                 T00220000 =
2016-12-05 02:47 METAR KRDG 050747Z 14003KT 6SM RA BR BKN008 OVC016 02/00 A3002 RMK AO2 P0004
                 T00220000 =
2016-12-05 02:39 METAR KRDG 050739Z 15003KT 7SM RA BKN010 BKN015 OVC021 02/01 A3001 RMK AO2 P0003
                 T00220006 =
2016-12-05 01:54 METAR KRDG 050654Z 16007KT 140V200 7SM RA BKN028 OVC047 03/01 A3002 RMK AO2
                 SLP173 P0002 T00280006 =
2016-12-05 00:54 METAR KRDG 050554Z 18009KT 10SM -RA FEW028 OVC050 04/M01 A3002 RMK AO2 RAB0456
                 SLP174 P0000 60000 T00441006 10056 20039 58025 =
2016-12-04 23:54 METAR KRDG 050454Z 16008KT 10SM BKN060 OVC075 05/M02 A3005 RMK AO2 SLP183
                 T00501022 400780039 =
2016-12-04 22:54 METAR KRDG 050354Z AUTO 15007KT 10SM SCT090 BKN120 05/M03 A3007 =
2016-12-04 21:54 METAR KRDG 050254Z AUTO 16004KT 10SM FEW120 04/M02 A3010 RMK AO2 SLP199
                 T00441022 58020 =
2016-12-04 20:54 METAR KRDG 050154Z AUTO 00000KT 10SM FEW120 05/M03 A3013 RMK AO2 SLP210
                 T00501028 =
2016-12-04 19:54 METAR KRDG 050054Z AUTO 00000KT 10SM CLR 04/M03 A3015 RMK AO2 SLP217 T00441028 =
2016-12-04 18:54 METAR KRDG 042354Z AUTO 18003KT 10SM CLR 04/M03 A3016 RMK AO2 SLP219 T00441033
                 10078 20044 57003 =
2016-12-04 17:54 METAR KRDG 042254Z AUTO 00000KT 10SM CLR 06/M04 A3016 RMK AO2 SLP219 T00561039 =
2016-12-04 16:54 METAR KRDG 042154Z 24003KT 10SM CLR 06/M04 A3017 RMK AO2 SLP223 T00611039 =
2016-12-04 15:54 METAR KRDG 042054Z 00000KT 10SM CLR 07/M04 A3017 RMK AO2 SLP222 T00671044 58012
                 =
2016-12-04 14:54 METAR KRDG 041954Z 30004KT 10SM CLR 07/M04 A3018 RMK AO2 SLP227 T00721044 =
2016-12-04 13:54 METAR KRDG 041854Z 32006KT 10SM CLR 08/M04 A3020 RMK AO2 SLP232 T00781039 =
2016-12-04 12:54 METAR KRDG 041754Z 32005KT 10SM CLR 07/M04 A3020 RMK AO2 SLP235 T00721039 10078
                 20044 58015 =
2016-12-04 11:54 METAR KRDG 041654Z 35006KT 10SM CLR 07/M04 A3022 RMK AO2 SLP241 T00721039 =

Support USWX by starting your Amazon purchase here.